Time;durP1;ratioP1;P1;durP2;ratioP2;P2;SDS_P1;SDS_P2;PMS_P1;PMS_P2;Temp;Humidity;BMP_temperature;BMP_pressure;BME280_temperature;BME280_humidity;BME280_pressure;Samples;Min_cycle;Max_cycle;Signal;HPM_P1;HPM_P2
2023/02/12 00:02:06;;;;;;;17.38;8.52;;;9.50;99.90;;;;;;5033422;28;20036;-42
2023/02/12 00:04:33;;;;;;;20.48;8.50;;;9.50;99.90;;;;;;5036373;28;20022;-41
2023/02/12 00:06:58;;;;;;;14.77;9.38;;;9.50;99.90;;;;;;5034011;28;20025;-39
2023/02/12 00:09:24;;;;;;;17.40;9.13;;;9.60;99.90;;;;;;5032929;28;20029;-38
2023/02/12 00:11:50;;;;;;;16.27;9.05;;;9.50;99.90;;;;;;5032660;28;20505;-43
2023/02/12 00:14:16;;;;;;;17.92;8.25;;;9.50;99.90;;;;;;5035142;28;20021;-39
2023/02/12 00:16:41;;;;;;;17.45;8.82;;;9.50;99.90;;;;;;5034865;28;20422;-40
2023/02/12 00:19:08;;;;;;;17.52;8.60;;;9.50;99.90;;;;;;5032487;28;20017;-41
2023/02/12 00:21:34;;;;;;;13.35;7.45;;;9.50;99.90;;;;;;5036005;28;20419;-41
2023/02/12 00:24:00;;;;;;;19.25;8.82;;;9.50;99.90;;;;;;5032271;28;20061;-42
2023/02/12 00:26:26;;;;;;;15.25;8.85;;;9.50;99.90;;;;;;5028846;28;20065;-42
2023/02/12 00:28:52;;;;;;;13.85;7.70;;;9.50;99.90;;;;;;5028312;28;20069;-36
2023/02/12 00:31:22;;;;;;;19.30;9.07;;;9.40;99.90;;;;;;5015598;28;20403;-40
2023/02/12 00:33:48;;;;;;;17.77;9.60;;;9.40;99.90;;;;;;5032280;28;20033;-39
2023/02/12 00:36:17;;;;;;;16.90;8.38;;;9.40;99.90;;;;;;5031557;28;20497;-39
2023/02/12 00:38:43;;;;;;;14.90;8.32;;;9.40;99.90;;;;;;5025358;28;20029;-38
2023/02/12 00:41:09;;;;;;;15.32;8.68;;;9.40;99.90;;;;;;5029922;28;20426;-49
2023/02/12 00:43:35;;;;;;;14.68;8.45;;;9.40;99.90;;;;;;5035049;28;20037;-39
2023/02/12 00:46:01;;;;;;;19.73;9.15;;;9.40;99.90;;;;;;5030234;28;20029;-39
2023/02/12 00:48:27;;;;;;;16.73;8.60;;;9.40;99.90;;;;;;5033933;28;20501;-39
2023/02/12 00:50:52;;;;;;;19.33;8.45;;;9.40;99.90;;;;;;5034016;28;20028;-39
2023/02/12 00:53:18;;;;;;;18.13;8.82;;;9.40;99.90;;;;;;5032797;28;20029;-40
2023/02/12 00:55:44;;;;;;;18.80;9.25;;;9.40;99.90;;;;;;5029757;28;20495;-42
2023/02/12 00:58:10;;;;;;;17.77;9.18;;;9.50;99.90;;;;;;5030338;28;20029;-41
2023/02/12 01:00:36;;;;;;;16.38;8.30;;;9.40;99.90;;;;;;5028128;28;20021;-40
2023/02/12 01:03:03;;;;;;;20.20;9.38;;;9.40;99.90;;;;;;5027161;28;20390;-40
2023/02/12 01:05:29;;;;;;;17.27;8.55;;;9.40;99.90;;;;;;5025252;28;20103;-35
2023/02/12 01:07:55;;;;;;;16.20;8.70;;;9.40;99.90;;;;;;5035301;28;20120;-37
2023/02/12 01:10:21;;;;;;;17.27;8.57;;;9.30;99.90;;;;;;5016643;28;20033;-37
2023/02/12 01:12:48;;;;;;;19.30;8.13;;;9.40;99.90;;;;;;5035110;28;20025;-35
2023/02/12 01:15:14;;;;;;;15.45;8.57;;;9.30;99.90;;;;;;5041563;28;20040;-37
2023/02/12 01:17:39;;;;;;;17.83;8.68;;;9.30;99.90;;;;;;5034911;28;20021;-39
2023/02/12 01:20:07;;;;;;;16.98;7.82;;;9.30;99.90;;;;;;5030221;28;20441;-38
2023/02/12 01:22:36;;;;;;;21.98;9.85;;;9.30;99.90;;;;;;5021891;28;20029;-35
2023/02/12 01:25:03;;;;;;;21.73;10.10;;;9.20;99.90;;;;;;5025088;28;20087;-39
2023/02/12 01:27:29;;;;;;;15.77;8.83;;;9.30;99.90;;;;;;5020819;28;20572;-37
2023/02/12 01:29:55;;;;;;;18.90;9.38;;;9.30;99.90;;;;;;5023165;28;20037;-38
2023/02/12 01:32:21;;;;;;;19.08;9.35;;;9.30;99.90;;;;;;5030546;28;20033;-36
2023/02/12 01:34:47;;;;;;;18.27;8.20;;;9.30;99.90;;;;;;5027183;28;20050;-35
2023/02/12 01:37:13;;;;;;;20.13;8.65;;;9.40;99.90;;;;;;5012563;28;20720;-39
2023/02/12 01:39:38;;;;;;;17.08;9.55;;;9.40;99.90;;;;;;5020902;28;20018;-34
2023/02/12 01:42:05;;;;;;;22.13;9.25;;;9.30;99.90;;;;;;5029505;28;20083;-37
2023/02/12 01:44:34;;;;;;;18.35;10.32;;;9.40;99.90;;;;;;5027940;28;20022;-35
2023/02/12 01:47:04;;;;;;;17.02;9.13;;;9.40;99.90;;;;;;5023554;28;20026;-38
2023/02/12 01:49:39;;;;;;;18.10;8.40;;;9.40;99.90;;;;;;5027863;28;20441;-38
2023/02/12 01:52:12;;;;;;;15.48;8.32;;;9.30;99.90;;;;;;5030342;28;20389;-36
2023/02/12 01:54:39;;;;;;;17.35;8.93;;;9.40;99.90;;;;;;5029905;28;20021;-35
2023/02/12 01:57:06;;;;;;;17.15;8.63;;;9.30;99.90;;;;;;5033777;28;20520;-35
2023/02/12 01:59:34;;;;;;;22.23;9.43;;;9.40;99.90;;;;;;5030164;28;20017;-37
2023/02/12 02:02:00;;;;;;;15.45;8.45;;;9.40;99.90;;;;;;5032513;28;20034;-40
2023/02/12 02:04:30;;;;;;;18.85;9.35;;;9.40;99.90;;;;;;5033460;28;20034;-41
2023/02/12 02:06:58;;;;;;;23.90;9.25;;;9.30;99.90;;;;;;5032817;28;20113;-42
2023/02/12 02:09:25;;;;;;;14.90;8.18;;;9.30;99.90;;;;;;5032493;28;20053;-41
2023/02/12 02:14:37;;;;;;;18.30;8.52;;;9.30;99.90;;;;;;5016630;28;20408;-39
2023/02/12 02:17:27;;;;;;;16.48;9.27;;;9.20;99.90;;;;;;5031477;28;20029;-42
2023/02/12 02:20:00;;;;;;;19.45;8.68;;;9.20;99.90;;;;;;5032988;28;20036;-42
2023/02/12 02:23:03;;;;;;;20.25;9.25;;;9.10;99.90;;;;;;5017735;28;20033;-38
2023/02/12 02:25:44;;;;;;;16.00;8.98;;;9.10;99.90;;;;;;5019741;28;20041;-37
2023/02/12 02:28:18;;;;;;;15.30;8.70;;;9.20;99.90;;;;;;5033461;28;20053;-40
2023/02/12 02:31:20;;;;;;;21.30;9.98;;;9.10;99.90;;;;;;5032523;28;20389;-38
2023/02/12 02:34:05;;;;;;;20.40;9.50;;;9.20;99.90;;;;;;5019115;28;20061;-40
2023/02/12 02:36:40;;;;;;;17.95;9.75;;;9.10;99.90;;;;;;5017196;28;20556;-40
2023/02/12 02:39:08;;;;;;;20.48;9.85;;;9.10;99.90;;;;;;5028324;28;20029;-39
2023/02/12 02:41:58;;;;;;;16.80;9.07;;;9.10;99.90;;;;;;5024365;28;20079;-40
2023/02/12 02:44:40;;;;;;;22.90;9.60;;;9.10;99.90;;;;;;5013485;28;20498;-39
2023/02/12 02:47:11;;;;;;;22.00;10.23;;;9.20;99.90;;;;;;5013608;28;20478;-39
2023/02/12 02:49:45;;;;;;;21.88;9.30;;;9.20;99.90;;;;;;5019348;28;20021;-39
2023/02/12 02:52:16;;;;;;;19.10;10.00;;;9.20;99.90;;;;;;5027555;28;20038;-39
2023/02/12 02:54:48;;;;;;;20.65;11.27;;;9.20;99.90;;;;;;5033296;28;20535;-38
2023/02/12 02:57:18;;;;;;;23.75;9.90;;;9.10;99.90;;;;;;5033140;28;20100;-39
2023/02/12 02:59:55;;;;;;;17.33;9.18;;;9.10;99.90;;;;;;5024447;28;20486;-46
2023/02/12 03:02:29;;;;;;;16.70;9.48;;;9.10;99.90;;;;;;5013636;28;20486;-40
2023/02/12 03:05:05;;;;;;;18.20;11.05;;;9.10;99.90;;;;;;5027496;28;20025;-40
2023/02/12 03:07:40;;;;;;;21.52;9.68;;;9.10;99.90;;;;;;5021999;28;20068;-39
2023/02/12 03:10:23;;;;;;;20.02;11.05;;;9.10;99.90;;;;;;5018990;28;20030;-39
2023/02/12 03:13:15;;;;;;;19.00;9.48;;;9.10;99.90;;;;;;5032794;28;20025;-34
2023/02/12 03:15:47;;;;;;;18.48;9.32;;;9.10;99.90;;;;;;5024598;28;20556;-35
2023/02/12 03:18:22;;;;;;;23.25;10.93;;;9.10;99.90;;;;;;5031640;28;20100;-36
2023/02/12 03:20:56;;;;;;;21.13;10.00;;;9.10;99.90;;;;;;5031639;28;20037;-37
2023/02/12 03:23:26;;;;;;;18.67;9.57;;;9.10;99.90;;;;;;5030015;28;20033;-38
2023/02/12 03:26:21;;;;;;;22.13;10.70;;;9.10;99.90;;;;;;5031661;28;20393;-35
2023/02/12 03:28:46;;;;;;;16.95;9.73;;;9.20;99.90;;;;;;5024100;28;20046;-38
2023/02/12 03:31:34;;;;;;;17.85;9.43;;;9.10;99.90;;;;;;5012963;28;20508;-37
2023/02/12 03:34:30;;;;;;;21.73;10.60;;;9.10;99.90;;;;;;5026412;28;20075;-38
2023/02/12 03:37:09;;;;;;;26.13;11.23;;;9.20;99.90;;;;;;5031474;28;20025;-37
2023/02/12 03:39:43;;;;;;;16.65;9.57;;;9.20;99.90;;;;;;5031524;28;20105;-38
2023/02/12 03:42:22;;;;;;;23.13;11.02;;;9.20;99.90;;;;;;5031139;28;20026;-37
2023/02/12 03:44:56;;;;;;;28.13;10.90;;;9.20;99.90;;;;;;5025791;28;20060;-30
2023/02/12 03:47:45;;;;;;;15.95;8.77;;;9.20;99.90;;;;;;5015734;28;20455;-38
2023/02/12 03:50:23;;;;;;;20.65;9.73;;;9.10;99.90;;;;;;5028726;28;20038;-34
2023/02/12 03:52:49;;;;;;;18.63;9.18;;;9.10;99.90;;;;;;5022402;28;20033;-48
2023/02/12 03:55:15;;;;;;;23.00;11.27;;;9.10;99.90;;;;;;5030707;28;20492;-48
2023/02/12 03:57:49;;;;;;;16.33;8.85;;;9.10;99.90;;;;;;5024240;28;20100;-48
2023/02/12 04:00:22;;;;;;;18.58;9.35;;;9.10;99.90;;;;;;5031692;28;20474;-47
2023/02/12 04:02:49;;;;;;;15.75;8.95;;;9.10;99.90;;;;;;5029422;28;20548;-47
2023/02/12 04:05:22;;;;;;;19.00;10.05;;;9.10;99.90;;;;;;5022324;28;20552;-44
2023/02/12 04:07:49;;;;;;;18.25;9.77;;;9.10;99.90;;;;;;5028362;28;20087;-47
2023/02/12 04:10:15;;;;;;;20.73;9.90;;;9.10;99.90;;;;;;5020982;28;20483;-48
2023/02/12 04:13:05;;;;;;;17.67;10.55;;;9.10;99.90;;;;;;5029386;28;20500;-51
2023/02/12 04:15:36;;;;;;;18.42;9.95;;;9.10;99.90;;;;;;5028504;28;20028;-47
2023/02/12 04:18:15;;;;;;;16.27;9.05;;;9.10;99.90;;;;;;5032319;28;20498;-48
2023/02/12 04:20:56;;;;;;;21.50;10.15;;;9.10;99.90;;;;;;5032390;28;20421;-46
2023/02/12 04:23:58;;;;;;;16.40;8.90;;;9.10;99.90;;;;;;5034010;28;20030;-37
2023/02/12 04:26:41;;;;;;;16.38;9.85;;;9.10;99.90;;;;;;5035111;28;20029;-40
2023/02/12 04:29:41;;;;;;;16.10;8.70;;;9.10;99.90;;;;;;5035799;28;20116;-39
2023/02/12 04:32:36;;;;;;;15.93;8.93;;;9.00;99.90;;;;;;5030207;28;20036;-39
2023/02/12 04:35:20;;;;;;;18.42;9.88;;;9.00;99.90;;;;;;5032387;28;20434;-39
2023/02/12 04:38:05;;;;;;;18.42;9.32;;;9.00;99.90;;;;;;5034746;28;20025;-36
2023/02/12 04:40:31;;;;;;;17.65;10.15;;;9.00;99.90;;;;;;5035144;28;20500;-48
2023/02/12 04:42:57;;;;;;;20.00;11.13;;;8.90;99.90;;;;;;5035598;28;20366;-39
2023/02/12 04:45:27;;;;;;;15.82;10.23;;;8.90;99.90;;;;;;5035143;28;20087;-40
2023/02/12 04:47:53;;;;;;;17.48;9.77;;;9.00;99.90;;;;;;5034309;28;20029;-35
2023/02/12 04:50:19;;;;;;;25.40;10.88;;;9.00;99.90;;;;;;5034124;28;20026;-33
2023/02/12 04:52:45;;;;;;;20.60;10.15;;;9.00;99.90;;;;;;5033233;28;20478;-37
2023/02/12 04:55:11;;;;;;;16.98;9.52;;;9.00;99.90;;;;;;5033989;28;20079;-31
2023/02/12 04:57:37;;;;;;;19.35;9.82;;;9.00;99.90;;;;;;5035160;28;20029;-37
2023/02/12 05:00:04;;;;;;;15.90;9.52;;;9.00;99.90;;;;;;5033534;28;20385;-33
2023/02/12 05:02:31;;;;;;;22.65;10.15;;;9.10;99.90;;;;;;5035510;28;20514;-38
2023/02/12 05:04:57;;;;;;;21.70;10.15;;;9.10;99.90;;;;;;5034021;28;20049;-38
2023/02/12 05:07:23;;;;;;;18.58;9.75;;;9.10;99.90;;;;;;5033989;28;20030;-34
2023/02/12 05:09:48;;;;;;;19.50;9.93;;;9.10;99.90;;;;;;5025210;28;20032;-35
2023/02/12 05:12:14;;;;;;;19.55;11.73;;;9.10;99.90;;;;;;5035257;28;20017;-37
2023/02/12 05:14:39;;;;;;;19.10;9.75;;;9.00;99.90;;;;;;5033386;28;20061;-40
2023/02/12 05:17:05;;;;;;;18.63;10.15;;;9.00;99.90;;;;;;5030733;28;20474;-36
2023/02/12 05:19:31;;;;;;;16.25;9.60;;;9.10;99.90;;;;;;5015220;28;20022;-40
2023/02/12 05:21:56;;;;;;;16.85;9.20;;;9.00;99.90;;;;;;5027387;28;20064;-34
2023/02/12 05:24:22;;;;;;;14.38;8.93;;;9.10;99.90;;;;;;5034788;28;20102;-40
2023/02/12 05:26:49;;;;;;;13.30;8.63;;;9.10;99.90;;;;;;5018441;28;20173;-39
2023/02/12 05:29:14;;;;;;;17.60;9.55;;;9.10;99.90;;;;;;5029715;28;20858;-37
2023/02/12 05:31:40;;;;;;;18.05;9.75;;;9.10;99.90;;;;;;5025579;28;20128;-39
2023/02/12 05:34:08;;;;;;;20.85;10.15;;;9.10;99.90;;;;;;5033914;28;20018;-37
2023/02/12 05:36:34;;;;;;;18.33;10.57;;;9.10;99.90;;;;;;5028253;28;20029;-36
2023/02/12 05:39:00;;;;;;;13.18;8.90;;;9.10;99.90;;;;;;5033434;28;20539;-38
2023/02/12 05:41:26;;;;;;;16.90;9.77;;;9.10;99.90;;;;;;5029906;28;20029;-38
2023/02/12 05:43:52;;;;;;;17.38;10.00;;;9.00;99.90;;;;;;5034443;28;20124;-36
2023/02/12 05:46:19;;;;;;;18.75;10.52;;;9.00;99.90;;;;;;5026825;28;20481;-34
2023/02/12 05:48:45;;;;;;;18.17;9.88;;;9.00;99.90;;;;;;5026514;28;20036;-38
2023/02/12 05:51:14;;;;;;;16.45;9.15;;;9.00;99.90;;;;;;5030601;28;20087;-36
2023/02/12 05:53:40;;;;;;;16.52;10.20;;;9.00;99.90;;;;;;5030232;28;20025;-38
2023/02/12 05:56:09;;;;;;;21.08;9.25;;;9.00;99.90;;;;;;5032782;28;20025;-38
2023/02/12 05:58:35;;;;;;;15.68;8.75;;;9.00;99.90;;;;;;5032743;28;20029;-37
2023/02/12 06:01:00;;;;;;;18.17;8.43;;;9.00;99.90;;;;;;5028657;28;20474;-35
2023/02/12 06:03:26;;;;;;;13.95;9.13;;;9.00;99.90;;;;;;5032963;28;20448;-38
2023/02/12 06:05:52;;;;;;;17.30;9.93;;;9.00;99.90;;;;;;5031817;28;20449;-33
2023/02/12 06:08:18;;;;;;;21.98;9.95;;;8.90;99.90;;;;;;5028832;28;20029;-49
2023/02/12 06:10:44;;;;;;;16.00;8.93;;;8.90;99.90;;;;;;5029782;28;20115;-36
2023/02/12 06:13:09;;;;;;;15.32;9.55;;;8.90;99.90;;;;;;5033319;28;20036;-37
2023/02/12 06:15:35;;;;;;;15.82;9.45;;;8.90;99.90;;;;;;5031153;28;20088;-38
2023/02/12 06:18:01;;;;;;;21.60;9.82;;;8.90;99.90;;;;;;5034231;28;20045;-36
2023/02/12 06:20:27;;;;;;;18.02;9.70;;;8.90;99.90;;;;;;5022953;28;20386;-38
2023/02/12 06:22:52;;;;;;;14.50;8.50;;;8.90;99.90;;;;;;5025726;28;20026;-36
2023/02/12 06:25:18;;;;;;;14.63;8.73;;;9.00;99.90;;;;;;5028759;28;20034;-39
2023/02/12 06:27:43;;;;;;;18.00;9.30;;;9.00;99.90;;;;;;5022190;28;20072;-39
2023/02/12 06:30:10;;;;;;;18.73;9.25;;;9.00;99.90;;;;;;5031328;28;20026;-40
2023/02/12 06:32:35;;;;;;;18.15;9.30;;;9.00;99.90;;;;;;5026097;28;20030;-41
2023/02/12 06:35:01;;;;;;;14.98;8.98;;;9.00;99.90;;;;;;5018722;28;20037;-31
2023/02/12 06:37:26;;;;;;;15.70;9.45;;;9.00;99.90;;;;;;5014535;28;20386;-40
2023/02/12 06:39:52;;;;;;;15.35;9.25;;;9.00;99.90;;;;;;5033297;28;20681;-38
2023/02/12 06:42:18;;;;;;;13.75;9.20;;;9.00;99.90;;;;;;5032937;28;20489;-39
2023/02/12 06:44:45;;;;;;;17.80;8.65;;;9.00;99.90;;;;;;5033238;28;20026;-39
2023/02/12 06:47:11;;;;;;;21.20;10.15;;;9.00;99.90;;;;;;5031578;28;20041;-37
2023/02/12 06:49:37;;;;;;;17.98;9.73;;;9.00;99.90;;;;;;5019790;28;20033;-47
2023/02/12 06:52:02;;;;;;;20.10;9.88;;;8.90;99.90;;;;;;5027098;28;20555;-41
2023/02/12 06:54:28;;;;;;;21.15;8.90;;;8.90;99.90;;;;;;5032215;28;20037;-41
2023/02/12 06:56:53;;;;;;;18.10;9.52;;;8.90;99.90;;;;;;5033297;28;20028;-41
2023/02/12 06:59:38;;;;;;;17.13;10.25;;;8.90;99.90;;;;;;5030477;28;20438;-41
2023/02/12 07:02:03;;;;;;;14.13;8.38;;;8.80;99.90;;;;;;5032094;28;20470;-41
2023/02/12 07:04:29;;;;;;;17.83;9.13;;;8.80;99.90;;;;;;5032984;28;20036;-36
2023/02/12 07:06:55;;;;;;;18.45;9.32;;;8.80;99.90;;;;;;5031823;28;20021;-39
2023/02/12 07:09:20;;;;;;;19.73;9.85;;;8.90;99.90;;;;;;5032027;28;20398;-35
2023/02/12 07:11:46;;;;;;;15.80;9.18;;;8.90;99.90;;;;;;5032879;28;20029;-37
2023/02/12 07:14:15;;;;;;;16.98;8.60;;;8.90;99.90;;;;;;5031521;28;20021;-37
2023/02/12 07:16:41;;;;;;;20.00;9.57;;;8.90;99.90;;;;;;5023306;28;20041;-36
2023/02/12 07:19:08;;;;;;;15.70;8.85;;;8.90;99.90;;;;;;5013156;28;20595;-37
2023/02/12 07:21:34;;;;;;;17.52;9.63;;;8.90;99.90;;;;;;5013812;28;20045;-38
2023/02/12 07:23:59;;;;;;;16.90;9.07;;;8.90;99.90;;;;;;5015099;28;20034;-40
2023/02/12 07:26:25;;;;;;;16.83;9.48;;;8.90;99.90;;;;;;5012731;28;20026;-36
2023/02/12 07:28:51;;;;;;;16.08;9.43;;;8.80;99.90;;;;;;5024453;28;20033;-39
2023/02/12 07:31:19;;;;;;;15.98;8.55;;;8.80;99.90;;;;;;5025675;28;20022;-39
2023/02/12 07:33:46;;;;;;;15.55;9.80;;;8.90;99.90;;;;;;5027094;28;20482;-37
2023/02/12 07:36:14;;;;;;;17.77;10.30;;;8.90;99.90;;;;;;5021908;28;20029;-41
2023/02/12 07:38:40;;;;;;;18.52;10.00;;;8.90;99.90;;;;;;5015568;28;20053;-35
2023/02/12 07:41:26;;;;;;;15.25;9.45;;;9.00;99.90;;;;;;5032660;28;20111;-36
2023/02/12 07:44:06;;;;;;;23.08;10.15;;;9.00;99.90;;;;;;5020061;28;20510;-38
2023/02/12 07:46:44;;;;;;;18.40;9.93;;;9.00;99.90;;;;;;5019779;28;20117;-40
2023/02/12 07:49:16;;;;;;;18.25;8.82;;;9.00;99.90;;;;;;5026534;28;20545;-39
2023/02/12 07:51:42;;;;;;;16.90;9.15;;;9.00;99.90;;;;;;5022439;28;20029;-35
2023/02/12 07:54:09;;;;;;;19.30;9.88;;;9.10;99.90;;;;;;5029385;28;20100;-36
2023/02/12 07:56:37;;;;;;;16.88;9.75;;;9.10;99.90;;;;;;5036347;28;20496;-50
2023/02/12 07:59:15;;;;;;;15.38;9.55;;;9.10;99.90;;;;;;5034538;28;20477;-42
2023/02/12 08:01:42;;;;;;;;;;;9.10;99.90;;;;;;5020730;28;20030;-41
2023/02/12 08:04:12;;;;;;;14.27;7.43;;;9.10;99.90;;;;;;5023819;28;19909;-41
2023/02/12 08:06:40;;;;;;;15.45;9.98;;;9.10;99.90;;;;;;5027182;28;20475;-51
2023/02/12 08:09:08;;;;;;;19.58;9.15;;;9.20;99.90;;;;;;5034114;28;20120;-40
2023/02/12 08:11:34;;;;;;;16.90;9.25;;;9.10;99.90;;;;;;5027567;28;20490;-41
2023/02/12 08:14:01;;;;;;;15.80;9.10;;;9.10;99.90;;;;;;5024677;28;20127;-41
2023/02/12 08:16:27;;;;;;;13.98;8.68;;;9.10;99.90;;;;;;5035622;28;20374;-41
2023/02/12 08:18:54;;;;;;;16.30;9.15;;;9.10;99.90;;;;;;5045128;28;20029;-42
2023/02/12 08:21:24;;;;;;;16.52;8.65;;;9.10;99.90;;;;;;5044908;28;20501;-42
2023/02/12 08:23:52;;;;;;;15.02;9.02;;;9.20;99.90;;;;;;5027786;28;20045;-41
2023/02/12 08:26:24;;;;;;;13.40;8.33;;;9.20;99.90;;;;;;5026967;28;20029;-43
2023/02/12 08:28:53;;;;;;;16.67;8.60;;;9.20;99.90;;;;;;5035989;28;20260;-41
2023/02/12 08:31:25;;;;;;;15.23;8.88;;;9.20;99.90;;;;;;5032652;28;20022;-42
2023/02/12 08:33:53;;;;;;;15.10;7.88;;;9.20;99.90;;;;;;5020135;28;20479;-41
2023/02/12 08:36:21;;;;;;;15.17;8.63;;;9.20;99.90;;;;;;5021986;28;20077;-41
2023/02/12 08:38:47;;;;;;;14.82;8.43;;;9.20;99.90;;;;;;5033636;28;20061;-40
2023/02/12 08:41:22;;;;;;;12.63;7.53;;;9.20;99.90;;;;;;5026774;28;20029;-39
2023/02/12 08:43:48;;;;;;;15.13;7.53;;;9.30;99.90;;;;;;5033775;28;20068;-41
2023/02/12 08:46:20;;;;;;;15.73;8.30;;;9.30;99.90;;;;;;5035702;28;20545;-41
2023/02/12 08:48:46;;;;;;;20.83;8.27;;;9.30;99.90;;;;;;5034891;28;20029;-39
2023/02/12 08:51:17;;;;;;;13.48;7.65;;;9.30;99.90;;;;;;5032443;28;20028;-39
2023/02/12 08:53:45;;;;;;;14.45;7.20;;;9.30;99.90;;;;;;5017745;28;20026;-33
2023/02/12 08:56:14;;;;;;;10.15;6.75;;;9.40;99.90;;;;;;5027386;28;20025;-40
2023/02/12 08:58:40;;;;;;;13.55;8.05;;;9.40;99.90;;;;;;5026662;28;20044;-38
2023/02/12 09:01:10;;;;;;;12.93;7.82;;;9.30;99.90;;;;;;5025795;28;20021;-39
2023/02/12 09:03:36;;;;;;;14.73;7.65;;;9.30;99.90;;;;;;5025357;28;20068;-39
2023/02/12 09:06:03;;;;;;;13.18;7.32;;;9.30;99.90;;;;;;5027863;28;20457;-33
2023/02/12 09:08:29;;;;;;;14.57;8.30;;;9.40;99.90;;;;;;5033640;28;20378;-36
2023/02/12 09:10:55;;;;;;;12.93;7.80;;;9.40;99.90;;;;;;5033387;28;20026;-35
2023/02/12 09:13:21;;;;;;;11.05;6.85;;;9.40;99.90;;;;;;5023574;28;20029;-36
2023/02/12 09:15:47;;;;;;;12.20;7.15;;;9.50;99.90;;;;;;5024911;28;20021;-36
2023/02/12 09:18:13;;;;;;;13.23;7.65;;;9.50;99.90;;;;;;5014768;28;20302;-38
2023/02/12 09:20:41;;;;;;;19.08;8.90;;;9.50;99.90;;;;;;5032908;28;20633;-38
2023/02/12 09:23:09;;;;;;;14.18;7.57;;;9.50;99.90;;;;;;5033847;28;20032;-37
2023/02/12 09:25:40;;;;;;;11.20;6.93;;;9.60;99.90;;;;;;5033050;28;20108;-37
2023/02/12 09:28:05;;;;;;;12.45;6.28;;;9.60;99.90;;;;;;5014876;28;20042;-38
2023/02/12 09:30:31;;;;;;;12.93;7.15;;;9.60;99.90;;;;;;5028205;28;20041;-38
2023/02/12 09:32:57;;;;;;;10.32;6.10;;;9.60;99.90;;;;;;5033804;28;20171;-37
2023/02/12 09:35:23;;;;;;;11.45;6.68;;;9.70;99.90;;;;;;5028378;28;20025;-39
2023/02/12 09:37:49;;;;;;;10.65;5.70;;;9.70;99.90;;;;;;5025202;28;20079;-39
2023/02/12 09:40:41;;;;;;;16.00;6.60;;;9.70;99.90;;;;;;5032595;28;20033;-40
2023/02/12 09:43:35;;;;;;;9.27;6.07;;;9.80;99.90;;;;;;5031542;28;20029;-39
2023/02/12 09:46:16;;;;;;;9.93;5.85;;;9.90;99.90;;;;;;5025737;28;20032;-39
2023/02/12 09:48:57;;;;;;;10.45;6.03;;;9.90;99.90;;;;;;5027802;28;20144;-40
2023/02/12 09:51:24;;;;;;;11.00;6.53;;;9.90;99.90;;;;;;5032126;28;20501;-40
2023/02/12 09:54:05;;;;;;;13.57;7.83;;;9.90;99.90;;;;;;5030355;28;20112;-40
2023/02/12 09:56:34;;;;;;;13.20;7.15;;;9.90;99.90;;;;;;5032267;28;20280;-40
2023/02/12 09:59:03;;;;;;;13.48;7.80;;;9.90;99.90;;;;;;5031542;28;20048;-39
2023/02/12 10:01:29;;;;;;;10.32;6.70;;;9.90;99.90;;;;;;5021840;28;20025;-40
2023/02/12 10:03:55;;;;;;;11.27;6.35;;;9.90;99.90;;;;;;5029760;28;20055;-40
2023/02/12 10:06:23;;;;;;;15.57;7.60;;;9.90;99.90;;;;;;5029052;28;20068;-41
2023/02/12 10:08:54;;;;;;;12.85;7.75;;;10.00;99.90;;;;;;5032176;28;20501;-41
2023/02/12 10:11:47;;;;;;;13.18;7.72;;;10.10;99.90;;;;;;5031918;28;20100;-38
2023/02/12 10:14:24;;;;;;;14.25;8.07;;;10.10;99.90;;;;;;5033189;28;20036;-38
2023/02/12 10:17:02;;;;;;;17.27;9.18;;;10.20;99.90;;;;;;5033946;28;20024;-37
2023/02/12 10:19:50;;;;;;;17.33;8.70;;;10.20;99.90;;;;;;5033471;28;20026;-38
2023/02/12 10:22:34;;;;;;;13.25;8.02;;;10.30;99.90;;;;;;5030353;28;20147;-39
2023/02/12 10:25:22;;;;;;;15.50;8.43;;;10.30;99.90;;;;;;5021802;28;20104;-36
2023/02/12 10:27:53;;;;;;;15.50;7.72;;;10.30;99.90;;;;;;5031226;28;20048;-39
2023/02/12 10:30:21;;;;;;;14.48;8.38;;;10.30;99.90;;;;;;5031084;28;20471;-37
2023/02/12 10:32:51;;;;;;;15.65;8.80;;;10.30;99.90;;;;;;5030135;28;20037;-40
2023/02/12 10:35:20;;;;;;;16.38;8.98;;;10.30;99.90;;;;;;5033255;28;20022;-37
2023/02/12 10:38:01;;;;;;;18.30;9.10;;;10.30;99.90;;;;;;5031800;28;20033;-36
2023/02/12 10:40:33;;;;;;;18.80;9.00;;;10.30;99.90;;;;;;5031261;28;20104;-41
2023/02/12 10:43:01;;;;;;;16.05;8.50;;;10.30;99.90;;;;;;5026371;28;20474;-38
2023/02/12 10:45:33;;;;;;;10.60;6.00;;;10.30;99.90;;;;;;5023571;28;20025;-40
2023/02/12 10:48:20;;;;;;;14.77;8.05;;;10.30;99.90;;;;;;5022279;28;20073;-40
2023/02/12 10:50:58;;;;;;;13.85;7.78;;;10.30;99.90;;;;;;5011782;28;20080;-41
2023/02/12 10:53:44;;;;;;;17.17;8.60;;;10.40;99.90;;;;;;5018128;28;20394;-41
2023/02/12 10:56:26;;;;;;;23.05;8.60;;;10.40;99.90;;;;;;5020780;28;20018;-62
2023/02/12 10:58:53;;;;;;;15.15;8.75;;;10.40;99.90;;;;;;5025988;28;20026;-40
2023/02/12 11:01:21;;;;;;;14.65;8.10;;;10.40;99.90;;;;;;5031329;28;20017;-40
2023/02/12 11:03:46;;;;;;;16.80;9.83;;;10.40;99.90;;;;;;5032379;28;20064;-41
2023/02/12 11:06:22;;;;;;;14.65;8.38;;;10.40;99.90;;;;;;5028258;28;20324;-40
2023/02/12 11:08:48;;;;;;;14.98;9.45;;;10.40;99.90;;;;;;5028410;28;20034;-44
2023/02/12 11:11:21;;;;;;;19.17;8.18;;;10.40;99.90;;;;;;5026492;28;20536;-39
2023/02/12 11:14:20;;;;;;;20.58;9.45;;;10.40;99.90;;;;;;5032754;28;20056;-41
2023/02/12 11:16:56;;;;;;;19.83;9.20;;;10.30;99.90;;;;;;5018049;28;20426;-39
2023/02/12 11:19:25;;;;;;;19.27;9.55;;;10.30;99.90;;;;;;5023706;28;20441;-38
2023/02/12 11:22:02;;;;;;;26.58;9.65;;;10.30;99.90;;;;;;5030041;28;20100;-41
2023/02/12 11:24:31;;;;;;;19.55;9.63;;;10.40;99.90;;;;;;5028044;28;20025;-40
2023/02/12 11:27:20;;;;;;;15.57;8.85;;;10.40;99.90;;;;;;5028814;28;20033;-47
2023/02/12 11:30:02;;;;;;;14.88;8.48;;;10.40;99.90;;;;;;5026090;28;20051;-40
2023/02/12 11:32:28;;;;;;;19.17;9.98;;;10.40;99.90;;;;;;5028239;28;20030;-39
2023/02/12 11:35:17;;;;;;;14.27;9.25;;;10.40;99.90;;;;;;5028650;28;20022;-38
2023/02/12 11:37:44;;;;;;;16.63;9.20;;;10.40;99.90;;;;;;5032317;28;20095;-37
2023/02/12 11:40:22;;;;;;;18.70;8.50;;;10.50;99.90;;;;;;5030278;28;20033;-35
2023/02/12 11:42:57;;;;;;;14.52;7.22;;;10.50;99.90;;;;;;5032285;28;20033;-38
2023/02/12 11:45:31;;;;;;;16.15;9.32;;;10.50;99.90;;;;;;5032533;28;20352;-39
2023/02/12 11:47:57;;;;;;;18.25;9.10;;;10.50;99.90;;;;;;5025628;28;20112;-41
2023/02/12 11:50:29;;;;;;;14.57;8.35;;;10.50;99.90;;;;;;5025659;28;20080;-40
2023/02/12 11:53:08;;;;;;;15.93;8.50;;;10.50;99.90;;;;;;5013847;28;20040;-40
2023/02/12 11:55:37;;;;;;;16.33;9.15;;;10.50;99.90;;;;;;5018836;28;20033;-40
2023/02/12 11:58:04;;;;;;;17.00;9.70;;;10.40;99.90;;;;;;5020221;28;20032;-46
2023/02/12 12:00:33;;;;;;;20.20;9.63;;;10.40;99.90;;;;;;5028485;28;20037;-41
2023/02/12 12:03:17;;;;;;;17.60;8.70;;;10.50;99.90;;;;;;5022507;28;20477;-41
2023/02/12 12:05:51;;;;;;;17.55;9.05;;;10.50;99.90;;;;;;5026121;28;20490;-39
2023/02/12 12:08:38;;;;;;;16.48;8.98;;;10.50;99.90;;;;;;5028425;28;20112;-40
2023/02/12 12:11:23;;;;;;;19.30;9.13;;;10.50;99.90;;;;;;5028926;28;20478;-57
2023/02/12 12:14:13;;;;;;;17.88;9.60;;;10.50;99.90;;;;;;5013350;28;20534;-38
2023/02/12 12:20:01;;;;;;;16.35;9.10;;;10.40;99.90;;;;;;5025304;28;20048;-37
2023/02/12 12:22:48;;;;;;;19.05;9.80;;;10.50;99.90;;;;;;5018729;28;20083;-40
2023/02/12 12:25:33;;;;;;;16.40;9.13;;;10.40;99.90;;;;;;5014598;28;20449;-36
2023/02/12 12:28:14;;;;;;;18.33;9.32;;;10.40;99.90;;;;;;5029891;28;20049;-42
2023/02/12 12:31:15;;;;;;;15.88;8.77;;;10.40;99.90;;;;;;5030436;28;20411;-49
2023/02/12 12:34:04;;;;;;;18.20;9.25;;;10.40;99.90;;;;;;5028189;28;20076;-41
2023/02/12 12:36:45;;;;;;;16.98;8.23;;;10.40;99.90;;;;;;5016363;28;20347;-39
2023/02/12 12:39:38;;;;;;;18.15;10.00;;;10.40;99.90;;;;;;5029682;28;20393;-41
2023/02/12 12:42:34;;;;;;;16.67;9.88;;;10.40;99.90;;;;;;5027674;28;20367;-37
2023/02/12 12:45:41;;;;;;;16.13;8.63;;;10.40;99.90;;;;;;5032886;28;20505;-39
2023/02/12 12:48:58;;;;;;;18.57;9.60;;;10.40;99.90;;;;;;5018113;28;20406;-38
2023/02/12 12:52:00;;;;;;;18.30;8.93;;;10.40;99.90;;;;;;5012076;28;20390;-40
2023/02/12 12:54:52;;;;;;;16.55;9.52;;;10.40;99.90;;;;;;5012492;28;20030;-37
2023/02/12 12:57:36;;;;;;;14.05;8.80;;;10.40;99.90;;;;;;5024169;28;20121;-40
2023/02/12 13:00:20;;;;;;;18.60;9.02;;;10.40;99.90;;;;;;5028617;28;20287;-39
2023/02/12 13:02:58;;;;;;;13.07;8.68;;;10.40;99.90;;;;;;5028525;28;20620;-39
2023/02/12 13:05:48;;;;;;;14.60;7.70;;;10.40;99.90;;;;;;5017334;28;20465;-37
2023/02/12 13:08:25;;;;;;;16.25;8.77;;;10.50;99.90;;;;;;5023631;28;20022;-37
2023/02/12 13:10:56;;;;;;;;;;;10.50;99.90;;;;;;5025210;28;20029;-37
2023/02/12 13:13:30;;;;;;;14.45;7.97;;;10.40;99.90;;;;;;5030674;28;19959;-37
2023/02/12 13:15:55;;;;;;;15.85;8.60;;;10.40;99.90;;;;;;5026610;28;20474;-36